Sunday, August 28, 2016
20:45 UTC
  |  Log In   |  Register Free
Airport Search:

Northeast Philadelphia Airport
(KPNE)

FAA data valid effective Jul 21 2016 - Sep 15 2016 (unless otherwise noted).

 
 
 
 
 
 
 
 
 
 
 
 
 
 
Current Aviation Weather for KPNE

Weather Summary


The most recent METAR observation for PNE was updated at: 12:54 UTC
METAR for PNE is not available. Closest METAR is for
METAR

METAR KPNE 281954Z 15006KT 10SM FEW055 32/18 A3020 RMK AO2 SLP224 T03170178 $

METAR KPNE 281854Z 14006KT 10SM FEW050 32/18 A3023 RMK AO2 SLP234 T03170178 $

METAR KPNE 281754Z 10004KT 10SM CLR 31/17 A3024 RMK AO2 SLP240 T03110172 10317 20228 56013 $

METAR KDYL 281954Z VRB04KT 10SM CLR 31/18 A3019 RMK AO2 SLP216 T03110178

METAR KLOM 282035Z 00000KT 10SM CLR 30/17 A3017 RMK AO1

METAR KMJX 281956Z 13009KT 10SM CLR 29/18 A3021 RMK AO2 SLP236 T02890183

TAF for PNE is not available.
TAF

KPNE - TAF KPNE 281726Z 2818/2918 16007KT P6SM FEW040

KPNE - FM282300 VRB03KT P6SM SKC

KPNE - TEMPO 2906/2910 3SM BR

KPNE - FM291400 30006KT P6SM SCT040 =

KTTN - TAF KTTN 281726Z 2818/2918 18008KT P6SM FEW040

KTTN - FM290000 VRB03KT P6SM SKC

KTTN - TEMPO 2907/2911 3SM BR

KTTN - FM291400 30006KT P6SM SCT040 =

KPHL - TAF KPHL 281726Z 2818/2924 16008KT P6SM FEW040

KPHL - FM290000 17005KT P6SM SKC

KPHL - FM291000 24005KT P6SM SCT120

KPHL - FM291400 28008KT P6SM SCT040 =

KWRI - TAF KWRI 281800Z 2818/2924 13009KT 9999 FEW045 QNH3014INS

KWRI - BECMG 2908/2909 25009KT 9999 SCT050 QNH3008INS TX33/2918Z TN20/2909Z =

GlobalAir.com is loading additional information.
 Current Weather at PNE
89.0 F° (31.7 C°)

Southeast winds at 6.9 mph
Pressure:
30.23 in
Humidity:
43%
Wind:
Southeast at 6.9 mph
Dew Point:
64.0 F° (17.8 C°)
Visibility:
10.00 mi
PNE NOAA Radar




Find All Airport Services Find A Hotel Find A Rental Car Find A Golf Course Find A Restaurant $100 Hamburger



Airport Weather Forecast for KPNE

Translated METAR for KPNE (1954 UTC)
METAR:
KPNE 281954Z Northeast Philadelphia, Philadelphia, PA (KPNE). Aug 28, 1954Z. Wind from 150° at 6 knots, 10 statute miles visibility, Few clouds at 5,500 feet, Temperature 32°C, Dewpoint 18°C, Altimeter is 30.20. Remarks: automated station with precipitation discriminator sea level pressure 1022.4 hectopascals hourly temp 31.7°C dewpoint 17.8°C $
Conditions at:
KPNE (Northeast Philadelphia, PA) observed 1954 UTC 28 August 2016
Temperature:
89.0 F° (31.7 C°)
Dewpoint:
not reported - refer to area weather report
Pressure:
30.23 Hg
Winds:
not reported
Visibility:
10.00
Ceiling:
at least 12,000 feet AGL
Clouds:
not reported - refer to area weather report
Remarks:
SOME DATA ABOVE MAY BE INACCURATE!!!
"$" is an indication the sensor requires maintenance

Translated TAF for TAF for PNE is not available. Refer to local area forecast.
FBO's on the Field
FBO Company Facility Photos Services Transportation Aviation Fuel Prices: Prices include tax
Catering Weather Repair Courtesy Rental Type 100LL JetA JetA+ MOGAS 8087
 
Atlantic Aviation

This FBO has not yet been rated
FS:Independent
Last Updated: Aug-23
Login to update fuel prices
SS:
Contact Atlantic AviationMore FBO Information
 
North Philadelphia Jet Center

Currently rated 5 by 2 people
FS:Avfuel
Last Updated: Aug-01
Login to update fuel prices
SS:
Contact North Philadelphia Jet CenterMore FBO Information
 
Add another FBO Facility Photos Catering Weather Repair Courtesy Rental Type 100LL JetA JetA+ MOGAS 8087
Services Transportation Aviation Fuel Prices: Prices include tax


model-print
model-print
model-print
model-print